createdAt,value
2023-12-22T00:00:52.178Z,87.33
2023-12-22T00:03:37.559Z,87.83
2023-12-22T00:06:22.475Z,87.92
2023-12-22T00:09:07.409Z,88.19
2023-12-22T00:11:52.321Z,88.74
2023-12-22T00:14:37.918Z,89.02
2023-12-22T00:17:22.825Z,89.33
2023-12-22T00:20:08.136Z,89.47
2023-12-22T00:22:52.898Z,89.73
2023-12-22T00:25:37.858Z,89.77
2023-12-22T00:28:23.291Z,90.28
2023-12-22T00:31:08.362Z,90.05
2023-12-22T00:33:53.754Z,89.40
2023-12-22T00:36:39.030Z,88.81
2023-12-22T00:39:24.003Z,87.61
2023-12-22T00:42:08.849Z,86.33
2023-12-22T00:44:53.641Z,84.25
2023-12-22T00:47:38.457Z,83.38
2023-12-22T00:50:24.013Z,82.54
2023-12-22T00:53:08.864Z,82.48
2023-12-22T00:55:54.892Z,82.41
2023-12-22T00:58:41.071Z,82.48
2023-12-22T01:01:26.083Z,82.60
2023-12-22T01:04:11.605Z,82.61
2023-12-22T01:06:57.050Z,82.67
2023-12-22T01:09:43.510Z,82.84
2023-12-22T01:12:29.341Z,82.93
2023-12-22T01:15:14.552Z,82.61
2023-12-22T01:17:59.439Z,82.08
2023-12-22T01:20:44.312Z,81.77
2023-12-22T01:23:29.032Z,80.95
2023-12-22T01:26:13.876Z,80.59
2023-12-22T01:28:58.766Z,80.13
2023-12-22T01:31:44.177Z,80.39
2023-12-22T01:34:29.449Z,81.84
2023-12-22T01:37:14.386Z,82.65
2023-12-22T01:39:59.378Z,83.36
2023-12-22T01:42:44.177Z,84.20
2023-12-22T01:45:29.091Z,83.92
2023-12-22T01:48:14.170Z,84.45
2023-12-22T01:51:00.886Z,85.10
2023-12-22T01:53:47.004Z,85.99
2023-12-22T01:56:32.260Z,87.53
2023-12-22T01:59:17.402Z,88.52
2023-12-22T02:02:03.515Z,90.15
2023-12-22T02:04:49.205Z,91.36
2023-12-22T02:07:34.770Z,92.91
2023-12-22T02:10:19.582Z,93.51
2023-12-22T02:13:08.465Z,94.18
2023-12-22T02:16:08.747Z,95.01
2023-12-22T02:18:56.997Z,95.49
2023-12-22T02:22:08.657Z,95.84
2023-12-22T02:24:54.731Z,96.07
2023-12-22T02:27:50.766Z,95.86
2023-12-22T02:30:48.535Z,95.69
2023-12-22T02:33:37.210Z,95.95
2023-12-22T02:36:22.840Z,95.39
2023-12-22T02:39:09.425Z,95.19
2023-12-22T02:41:54.934Z,95.06
2023-12-22T02:44:40.028Z,95.11
2023-12-22T02:47:25.359Z,95.35
2023-12-22T02:50:11.573Z,95.23
2023-12-22T02:52:57.070Z,94.71
2023-12-22T02:55:42.545Z,94.43
2023-12-22T02:58:27.960Z,92.97
2023-12-22T03:01:12.747Z,92.01
2023-12-22T03:03:57.700Z,90.88
2023-12-22T03:06:42.579Z,90.00
2023-12-22T03:09:27.430Z,88.46
2023-12-22T03:12:12.370Z,87.30
2023-12-22T03:14:57.827Z,85.90
2023-12-22T03:17:42.953Z,84.75
2023-12-22T03:20:27.882Z,84.47
2023-12-22T03:23:12.909Z,83.97
2023-12-22T03:25:57.877Z,83.83
2023-12-22T03:28:43.278Z,84.20
2023-12-22T03:31:28.760Z,84.88
2023-12-22T03:34:14.268Z,86.45
2023-12-22T03:36:59.337Z,87.27
2023-12-22T03:39:44.245Z,88.62
2023-12-22T03:42:29.204Z,89.42
2023-12-22T03:45:14.042Z,89.57
2023-12-22T03:47:59.442Z,90.26
2023-12-22T03:50:44.655Z,90.54
2023-12-22T03:53:29.530Z,90.57
2023-12-22T03:56:14.509Z,90.39
2023-12-22T03:58:59.472Z,90.56
2023-12-22T04:01:44.291Z,90.43
2023-12-22T04:04:29.164Z,90.73
2023-12-22T04:07:14.411Z,89.94
2023-12-22T04:09:59.376Z,89.39
2023-12-22T04:12:44.519Z,89.41
2023-12-22T04:15:29.688Z,89.60
2023-12-22T04:18:14.592Z,90.12
2023-12-22T04:20:59.574Z,90.33
2023-12-22T04:23:44.498Z,90.22
2023-12-22T04:26:29.455Z,90.26
2023-12-22T04:29:15.209Z,90.10
2023-12-22T04:32:00.413Z,90.70
2023-12-22T04:34:45.428Z,91.25
2023-12-22T04:37:30.418Z,91.61
2023-12-22T04:40:15.253Z,92.83
2023-12-22T04:43:00.355Z,93.57
2023-12-22T04:45:45.510Z,93.56
2023-12-22T04:48:30.543Z,93.77
2023-12-22T04:51:15.858Z,94.02
2023-12-22T04:54:01.320Z,93.78
2023-12-22T04:56:46.248Z,94.23
2023-12-22T04:59:32.043Z,94.55
2023-12-22T05:02:17.255Z,94.82
2023-12-22T05:05:02.152Z,95.09
2023-12-22T05:07:47.207Z,95.42
2023-12-22T05:10:32.459Z,95.66
2023-12-22T05:13:17.568Z,95.86
2023-12-22T05:16:02.292Z,95.97
2023-12-22T05:18:47.562Z,96.28
2023-12-22T05:21:32.683Z,96.27
2023-12-22T05:24:17.575Z,96.50
2023-12-22T05:27:02.892Z,96.45
2023-12-22T05:29:47.832Z,96.56
2023-12-22T05:32:32.769Z,96.68
2023-12-22T05:35:17.695Z,96.70
2023-12-22T05:38:03.372Z,96.83
2023-12-22T05:40:48.746Z,96.70
2023-12-22T05:43:34.271Z,96.49
2023-12-22T05:46:19.590Z,96.35
2023-12-22T05:49:04.852Z,96.02
2023-12-22T05:51:50.226Z,96.01
2023-12-22T05:54:35.013Z,95.54
2023-12-22T05:57:19.917Z,95.60
2023-12-22T06:00:05.948Z,95.44
2023-12-22T06:02:51.031Z,96.06
2023-12-22T06:05:36.110Z,95.79
2023-12-22T06:08:21.392Z,95.40
2023-12-22T06:11:06.677Z,95.41
2023-12-22T06:13:51.501Z,94.94
2023-12-22T06:16:37.024Z,93.70
2023-12-22T06:19:21.820Z,93.91
2023-12-22T06:22:06.799Z,92.96
2023-12-22T06:24:52.049Z,92.67
2023-12-22T06:27:37.157Z,92.27
2023-12-22T06:30:22.002Z,92.14
2023-12-22T06:33:06.982Z,92.12
2023-12-22T06:35:52.237Z,92.04
2023-12-22T06:38:37.077Z,91.26
2023-12-22T06:41:32.028Z,90.94
2023-12-22T06:44:17.165Z,90.46
2023-12-22T06:47:02.338Z,90.14
2023-12-22T06:49:47.657Z,89.78
2023-12-22T06:52:33.034Z,89.88
2023-12-22T06:55:18.077Z,89.37
2023-12-22T06:58:03.273Z,89.36
2023-12-22T07:00:48.357Z,89.60
2023-12-22T07:03:33.249Z,89.13
2023-12-22T07:06:19.461Z,89.37
2023-12-22T07:09:16.685Z,89.49
2023-12-22T07:12:01.673Z,89.43
2023-12-22T07:14:47.557Z,89.71
2023-12-22T07:17:32.703Z,89.39
2023-12-22T07:20:17.921Z,89.66
2023-12-22T07:23:02.966Z,89.30
2023-12-22T07:25:47.914Z,89.77
2023-12-22T07:28:33.798Z,89.62
2023-12-22T07:31:19.604Z,89.55
2023-12-22T07:34:04.654Z,89.15
2023-12-22T07:36:59.113Z,89.35
2023-12-22T07:39:48.462Z,89.29
2023-12-22T07:42:33.895Z,89.09
2023-12-22T07:45:18.776Z,89.06
2023-12-22T07:48:03.964Z,88.90
2023-12-22T07:50:49.249Z,89.05
2023-12-22T07:53:34.834Z,88.57
2023-12-22T07:56:19.705Z,88.29
2023-12-22T07:59:13.662Z,88.31
2023-12-22T08:02:08.786Z,88.18
2023-12-22T08:04:54.187Z,88.18
2023-12-22T08:07:39.054Z,88.50
2023-12-22T08:10:24.077Z,88.71
2023-12-22T08:13:09.362Z,88.70
2023-12-22T08:15:54.417Z,88.42
2023-12-22T08:18:39.391Z,88.30
2023-12-22T08:21:33.733Z,87.96
2023-12-22T08:24:24.861Z,88.10
2023-12-22T08:27:10.346Z,88.35
2023-12-22T08:29:55.601Z,88.20
2023-12-22T08:32:40.504Z,88.49
2023-12-22T08:35:25.981Z,88.89
2023-12-22T08:38:11.213Z,89.26
2023-12-22T08:40:59.227Z,89.84
2023-12-22T08:43:46.040Z,90.04
2023-12-22T08:46:31.127Z,90.60
2023-12-22T08:49:16.017Z,90.85
2023-12-22T08:52:01.604Z,91.42
2023-12-22T08:54:46.379Z,91.85
2023-12-22T08:57:31.358Z,92.92
2023-12-22T09:00:16.384Z,92.81
2023-12-22T09:03:01.715Z,92.79
2023-12-22T09:05:46.615Z,93.00
2023-12-22T09:08:31.423Z,93.35
2023-12-22T09:11:21.061Z,93.73
2023-12-22T09:14:07.310Z,94.21
2023-12-22T09:16:52.734Z,94.81
2023-12-22T09:19:37.774Z,94.87
2023-12-22T09:22:23.096Z,95.33
2023-12-22T09:25:08.119Z,96.07
2023-12-22T09:27:53.082Z,96.83
2023-12-22T09:30:37.945Z,96.85
2023-12-22T09:33:22.938Z,97.33
2023-12-22T09:36:08.817Z,97.67
2023-12-22T09:38:53.904Z,97.92
2023-12-22T09:41:38.885Z,98.21
2023-12-22T09:44:25.217Z,98.30
2023-12-22T09:47:11.766Z,98.42
2023-12-22T09:49:59.012Z,98.35
2023-12-22T09:52:44.850Z,98.34
2023-12-22T09:55:33.595Z,98.50
2023-12-22T09:58:19.025Z,98.49
2023-12-22T10:01:05.735Z,98.56
2023-12-22T10:03:50.895Z,98.60
2023-12-22T10:06:35.827Z,98.70
2023-12-22T10:09:21.222Z,98.93
2023-12-22T10:12:07.754Z,98.63
2023-12-22T10:14:54.168Z,98.32
2023-12-22T10:17:40.909Z,98.05
2023-12-22T10:20:25.720Z,98.41
2023-12-22T10:23:10.699Z,98.23
2023-12-22T10:25:58.752Z,98.27
2023-12-22T10:28:44.048Z,98.30
2023-12-22T10:31:40.735Z,98.58
2023-12-22T10:34:26.134Z,98.50
2023-12-22T10:37:11.536Z,98.91
2023-12-22T10:39:56.479Z,99.21
2023-12-22T10:42:41.779Z,99.76
2023-12-22T10:45:26.916Z,100.00
2023-12-22T10:48:12.065Z,100.00
2023-12-22T10:50:57.333Z,100.00
2023-12-22T10:53:43.247Z,100.00
2023-12-22T10:56:29.412Z,100.00
2023-12-22T10:59:19.174Z,100.00
2023-12-22T11:02:05.309Z,100.00
2023-12-22T11:04:58.728Z,100.00
2023-12-22T11:07:49.241Z,100.00
2023-12-22T11:10:38.346Z,100.00
2023-12-22T11:13:24.434Z,100.00
2023-12-22T11:16:10.505Z,100.00
2023-12-22T11:18:56.836Z,100.00
2023-12-22T11:21:42.058Z,100.00
2023-12-22T11:24:29.303Z,100.00
2023-12-22T11:27:16.296Z,100.00
2023-12-22T11:30:01.995Z,100.00
2023-12-22T11:32:50.093Z,100.00
2023-12-22T11:35:36.353Z,100.00
2023-12-22T11:38:21.525Z,100.00
2023-12-22T11:41:10.086Z,100.00
2023-12-22T11:43:57.042Z,100.00
2023-12-22T11:46:42.491Z,100.00
2023-12-22T11:49:36.280Z,100.00
2023-12-22T11:52:27.106Z,100.00
2023-12-22T11:55:12.200Z,100.00
2023-12-22T11:57:57.182Z,100.00
2023-12-22T12:00:41.957Z,100.00
2023-12-22T12:03:27.911Z,100.00
2023-12-22T12:06:27.825Z,100.00
2023-12-22T12:09:13.373Z,100.00
2023-12-22T12:12:10.445Z,100.00
2023-12-22T12:14:59.116Z,100.00
2023-12-22T12:17:44.423Z,100.00
2023-12-22T12:20:29.974Z,100.00
2023-12-22T12:23:16.480Z,100.00
2023-12-22T12:26:02.082Z,100.00
2023-12-22T12:28:48.018Z,100.00
2023-12-22T12:31:37.347Z,100.00
2023-12-22T12:34:23.955Z,100.00
2023-12-22T12:37:09.689Z,100.00
2023-12-22T12:39:59.549Z,100.00
2023-12-22T12:42:45.453Z,100.00
2023-12-22T12:45:30.792Z,100.00
2023-12-22T12:48:19.507Z,100.00
2023-12-22T12:51:06.469Z,100.00
2023-12-22T12:53:51.600Z,100.00
2023-12-22T12:56:41.601Z,100.00
2023-12-22T12:59:26.604Z,100.00
2023-12-22T13:02:11.764Z,100.00
2023-12-22T13:04:57.266Z,100.00
2023-12-22T13:07:42.732Z,100.00
2023-12-22T13:10:27.602Z,100.00
2023-12-22T13:13:12.667Z,100.00
2023-12-22T13:15:57.843Z,100.00
2023-12-22T13:18:43.464Z,100.00
2023-12-22T13:21:29.953Z,100.00
2023-12-22T13:24:18.417Z,100.00
2023-12-22T13:27:05.506Z,100.00
2023-12-22T13:29:50.581Z,100.00
2023-12-22T13:32:35.560Z,100.00
2023-12-22T13:35:24.772Z,100.00
2023-12-22T13:38:10.665Z,100.00
2023-12-22T13:40:56.103Z,100.00
2023-12-22T13:43:41.144Z,100.00
2023-12-22T13:46:28.830Z,100.00
2023-12-22T13:49:14.059Z,100.00
2023-12-22T13:51:59.429Z,100.00
2023-12-22T13:54:44.402Z,100.00
2023-12-22T13:57:29.816Z,100.00
2023-12-22T14:00:20.965Z,100.00
2023-12-22T14:03:05.864Z,100.00
2023-12-22T14:05:54.011Z,100.00
2023-12-22T14:08:42.332Z,100.00
2023-12-22T14:11:30.371Z,100.00
2023-12-22T14:14:16.672Z,100.00
2023-12-22T14:17:01.598Z,100.00
2023-12-22T14:19:46.511Z,100.00
2023-12-22T14:22:31.891Z,100.00
2023-12-22T14:25:16.807Z,100.00
2023-12-22T14:28:01.674Z,100.00
2023-12-22T14:30:46.706Z,100.00
2023-12-22T14:33:32.021Z,100.00
2023-12-22T14:36:17.094Z,100.00
2023-12-22T14:39:01.981Z,100.00
2023-12-22T14:41:46.894Z,100.00
2023-12-22T14:44:32.039Z,100.00
2023-12-22T14:47:17.445Z,100.00
2023-12-22T14:50:03.618Z,100.00
2023-12-22T14:52:48.923Z,100.00
2023-12-22T14:55:34.316Z,100.00
2023-12-22T14:58:19.066Z,100.00
2023-12-22T15:01:04.284Z,100.00
2023-12-22T15:03:49.507Z,100.00
2023-12-22T15:06:39.274Z,100.00
2023-12-22T15:09:24.405Z,100.00
2023-12-22T15:12:09.350Z,100.00
2023-12-22T15:14:54.702Z,100.00
2023-12-22T15:17:39.659Z,100.00
2023-12-22T15:20:24.634Z,100.00
2023-12-22T15:23:10.031Z,100.00
2023-12-22T15:25:54.794Z,100.00
2023-12-22T15:28:39.669Z,100.00
2023-12-22T15:31:24.443Z,100.00
2023-12-22T15:34:09.426Z,100.00
2023-12-22T15:36:54.987Z,100.00
2023-12-22T15:39:40.135Z,100.00
2023-12-22T15:42:25.115Z,100.00
2023-12-22T15:45:11.219Z,100.00
2023-12-22T15:47:56.469Z,100.00
2023-12-22T15:50:41.277Z,100.00
2023-12-22T15:53:26.201Z,100.00
2023-12-22T15:56:12.023Z,100.00
2023-12-22T15:58:57.373Z,100.00
2023-12-22T16:01:46.028Z,100.00
2023-12-22T16:04:31.110Z,100.00
2023-12-22T16:07:15.953Z,100.00
2023-12-22T16:10:01.454Z,100.00
2023-12-22T16:12:46.527Z,100.00
2023-12-22T16:15:31.804Z,100.00
2023-12-22T16:18:16.614Z,100.00
2023-12-22T16:21:01.962Z,100.00
2023-12-22T16:23:46.854Z,100.00
2023-12-22T16:26:31.763Z,100.00
2023-12-22T16:29:16.797Z,100.00
2023-12-22T16:32:01.848Z,100.00
2023-12-22T16:34:46.645Z,100.00
2023-12-22T16:37:31.650Z,100.00
2023-12-22T16:40:16.709Z,100.00
2023-12-22T16:43:01.850Z,100.00
2023-12-22T16:45:46.766Z,100.00
2023-12-22T16:48:31.602Z,100.00
2023-12-22T16:51:16.377Z,100.00
2023-12-22T16:54:01.313Z,100.00
2023-12-22T16:56:46.645Z,100.00
2023-12-22T16:59:31.614Z,100.00
2023-12-22T17:02:27.841Z,100.00
2023-12-22T17:05:18.525Z,100.00
2023-12-22T17:08:04.966Z,100.00
2023-12-22T17:10:50.396Z,100.00
2023-12-22T17:13:35.695Z,100.00
2023-12-22T17:16:20.555Z,100.00
2023-12-22T17:19:05.422Z,100.00
2023-12-22T17:21:50.223Z,100.00
2023-12-22T17:24:35.305Z,100.00
2023-12-22T17:27:20.214Z,100.00
2023-12-22T17:30:05.699Z,100.00
2023-12-22T17:32:50.957Z,100.00
2023-12-22T17:35:36.398Z,100.00
2023-12-22T17:38:21.505Z,100.00
2023-12-22T17:41:06.895Z,100.00
2023-12-22T17:43:52.149Z,100.00
2023-12-22T17:46:37.902Z,100.00
2023-12-22T17:49:23.241Z,100.00
2023-12-22T17:52:08.178Z,99.46
2023-12-22T17:54:52.945Z,98.71
2023-12-22T17:57:37.926Z,97.72
2023-12-22T18:00:22.861Z,97.15
2023-12-22T18:03:07.831Z,96.58
2023-12-22T18:05:52.830Z,96.01
2023-12-22T18:08:37.621Z,95.58
2023-12-22T18:11:22.538Z,95.14
2023-12-22T18:14:07.644Z,94.31
2023-12-22T18:16:52.733Z,93.55
2023-12-22T18:19:37.539Z,92.93
2023-12-22T18:22:22.914Z,92.31
2023-12-22T18:25:07.982Z,91.59
2023-12-22T18:27:53.022Z,91.24
2023-12-22T18:30:37.819Z,90.68
2023-12-22T18:33:22.858Z,90.97
2023-12-22T18:36:08.356Z,90.33
2023-12-22T18:38:53.341Z,89.84
2023-12-22T18:41:38.432Z,89.86
2023-12-22T18:44:23.616Z,89.61
2023-12-22T18:47:08.564Z,89.61
2023-12-22T18:49:54.050Z,89.32
2023-12-22T18:52:39.005Z,89.13
2023-12-22T18:55:24.009Z,88.94
2023-12-22T18:58:08.877Z,88.95
2023-12-22T19:00:53.932Z,88.63
2023-12-22T19:03:39.386Z,88.60
2023-12-22T19:06:25.704Z,88.73
2023-12-22T19:09:10.852Z,88.40
2023-12-22T19:11:56.337Z,88.45
2023-12-22T19:14:41.326Z,88.95
2023-12-22T19:17:26.172Z,88.56
2023-12-22T19:20:11.654Z,88.71
2023-12-22T19:22:57.159Z,88.67
2023-12-22T19:25:41.979Z,88.15
2023-12-22T19:28:26.935Z,88.55
2023-12-22T19:31:11.840Z,89.07
2023-12-22T19:33:56.890Z,89.56
2023-12-22T19:36:42.105Z,89.45
2023-12-22T19:39:26.965Z,90.17
2023-12-22T19:42:11.951Z,90.46
2023-12-22T19:44:57.062Z,90.62
2023-12-22T19:47:41.984Z,90.77
2023-12-22T19:50:26.874Z,91.20
2023-12-22T19:53:12.079Z,91.62
2023-12-22T19:55:57.171Z,92.09
2023-12-22T19:58:42.733Z,92.55
2023-12-22T20:01:27.613Z,93.17
2023-12-22T20:04:12.681Z,93.77
2023-12-22T20:06:58.980Z,94.26
2023-12-22T20:09:43.929Z,94.43
2023-12-22T20:12:28.780Z,94.36
2023-12-22T20:15:13.727Z,95.06
2023-12-22T20:17:58.683Z,95.61
2023-12-22T20:20:44.206Z,95.11
2023-12-22T20:23:29.511Z,95.59
2023-12-22T20:26:16.549Z,96.50
2023-12-22T20:29:02.074Z,96.94
2023-12-22T20:31:47.171Z,97.10
2023-12-22T20:34:32.657Z,97.53
2023-12-22T20:37:17.445Z,98.19
2023-12-22T20:40:02.443Z,97.93
2023-12-22T20:42:47.230Z,98.16
2023-12-22T20:45:32.108Z,98.86
2023-12-22T20:48:17.017Z,98.69
2023-12-22T20:51:03.614Z,99.71
2023-12-22T20:53:48.896Z,100.00
2023-12-22T20:56:33.821Z,100.00
2023-12-22T20:59:19.447Z,100.00
2023-12-22T21:02:05.163Z,100.00
2023-12-22T21:04:50.549Z,100.00
2023-12-22T21:07:35.390Z,100.00
2023-12-22T21:10:20.381Z,100.00
2023-12-22T21:13:05.293Z,100.00
2023-12-22T21:15:50.475Z,100.00
2023-12-22T21:18:37.981Z,100.00
2023-12-22T21:21:22.747Z,100.00
2023-12-22T21:24:07.700Z,100.00
2023-12-22T21:26:52.628Z,100.00
2023-12-22T21:29:37.810Z,99.90
2023-12-22T21:32:23.195Z,99.47
2023-12-22T21:35:08.751Z,99.53
2023-12-22T21:37:54.406Z,99.41
2023-12-22T21:40:39.621Z,99.22
2023-12-22T21:43:24.588Z,98.65
2023-12-22T21:46:10.344Z,98.25
2023-12-22T21:48:55.531Z,98.04
2023-12-22T21:51:40.497Z,97.99
2023-12-22T21:54:25.417Z,97.40
2023-12-22T21:57:10.442Z,96.94
2023-12-22T21:59:55.294Z,96.19
2023-12-22T22:02:40.241Z,95.52
2023-12-22T22:05:25.084Z,95.07
2023-12-22T22:08:10.612Z,94.94
2023-12-22T22:10:55.991Z,94.33
2023-12-22T22:13:44.021Z,94.28
2023-12-22T22:16:29.628Z,94.02
2023-12-22T22:19:14.856Z,94.17
2023-12-22T22:21:59.625Z,93.89
2023-12-22T22:24:44.670Z,94.31
2023-12-22T22:27:29.602Z,93.96
2023-12-22T22:30:14.609Z,94.05
2023-12-22T22:32:59.479Z,93.90
2023-12-22T22:35:44.368Z,94.10
2023-12-22T22:38:29.422Z,94.27
2023-12-22T22:41:14.725Z,95.07
2023-12-22T22:44:00.371Z,95.46
2023-12-22T22:46:45.683Z,95.66
2023-12-22T22:49:30.605Z,95.56
2023-12-22T22:52:15.375Z,95.00
2023-12-22T22:55:00.396Z,94.65
2023-12-22T22:57:45.299Z,94.35
2023-12-22T23:00:30.255Z,94.02
2023-12-22T23:03:15.195Z,93.44
2023-12-22T23:06:04.246Z,93.47
2023-12-22T23:08:49.051Z,93.11
2023-12-22T23:11:34.483Z,93.17
2023-12-22T23:14:19.307Z,93.00
2023-12-22T23:17:04.840Z,92.96
2023-12-22T23:19:49.647Z,92.33
2023-12-22T23:22:35.036Z,92.47
2023-12-22T23:25:19.786Z,92.29
2023-12-22T23:28:05.168Z,92.27
2023-12-22T23:30:50.363Z,92.15
2023-12-22T23:33:35.466Z,92.17
2023-12-22T23:36:25.526Z,91.31
2023-12-22T23:39:13.256Z,91.35
2023-12-22T23:41:58.803Z,90.56
2023-12-22T23:44:43.793Z,89.97
2023-12-22T23:47:28.619Z,89.75
2023-12-22T23:50:14.128Z,88.82
2023-12-22T23:52:59.025Z,88.23
2023-12-22T23:55:44.061Z,88.18
2023-12-22T23:58:29.009Z,87.78
